KD4BNP Weather Reports


Display with metric or nautical units.
time (UTC)temp
F
wind
direction
speed
MPH
gust
MPH
rain 1hr
in
rain 24hr
in
rain mn
in
humidity
%
barometer
mb
20220625050002 76 41 0.0 2.0 0.00 0.00 0.00 90 1013.4
20220625042939 76 245 0.0 0.0 0.00 0.00 0.00 89 1013.4
20220625032948 76 245 0.0 1.0 0.00 0.00 0.00 88 1013.5
20220625025953 76 37 0.0 2.0 0.00 0.00 0.00 87 1013.6
20220625022959 76 12 0.0 3.0 0.00 0.00 0.00 87 1013.1
20220625020002 77 1 0.0 3.0 0.00 0.00 0.00 86 1013.1
20220625002959 77 268 0.0 7.0 0.00 0.00 0.00 84 1013.1
20220624232958 79 17 2.0 9.0 0.00 0.00 0.00 80 1013.0
20220624220003 85 221 3.0 7.0 0.00 0.00 0.00 70 1011.4
20220624212958 87 285 1.0 8.0 0.00 0.00 0.00 70 1011.0
20220624210003 87 192 2.0 10.0 0.00 0.00 0.00 74 1010.3
20220624185953 92 70 5.0 9.0 0.00 0.00 0.00 67 1009.8
20220624182959 95 91 3.0 8.0 0.00 0.00 0.00 64 1010.4
20220624170004 96 30 2.0 8.0 0.00 0.00 0.00 56 1011.6
20220624162959 94 40 3.0 7.0 0.00 0.00 0.00 62 1011.5
20220624150004 91 58 2.0 7.0 0.00 0.00 0.00 68 1011.9
20220624142958 89 14 2.0 6.0 0.00 0.00 0.00 72 1011.8
20220624140003 87 119 2.0 7.0 0.00 0.00 0.00 76 1011.7
20220624130003 83 256 3.0 8.0 0.00 0.00 0.00 85 1011.8
20220624122938 81 248 2.0 6.0 0.00 0.00 0.00 89 1011.7
20220624115943 78 237 1.0 6.0 0.00 0.00 0.00 94 1011.5
20220624112949 76 227 2.0 5.0 0.00 0.00 0.00 97 1011.2
20220624092959 76 210 0.0 5.0 0.00 0.00 0.00 95 1010.5
20220624090003 76 225 1.0 3.0 0.00 0.00 0.00 95 1010.6
20220624070004 78 174 2.0 5.0 0.00 0.00 0.00 91 1010.5
20220624062959 78 237 1.0 5.0 0.00 0.00 0.00 89 1010.5
20220624052959 78 226 2.0 3.0 0.00 0.00 0.00 87 1010.5